sensor_id;sensor_type;location;lat;lon;timestamp;P1;durP1;ratioP1;P2;durP2;ratioP2
51224;SDS011;37298;42.688;23.312;2023-07-20T00:03:10;1.95;;;1.67;;
51224;SDS011;37298;42.688;23.312;2023-07-20T00:05:38;4.23;;;1.83;;
51224;SDS011;37298;42.688;23.312;2023-07-20T00:08:05;4.28;;;2.13;;
51224;SDS011;37298;42.688;23.312;2023-07-20T00:10:31;6.80;;;2.40;;
51224;SDS011;37298;42.688;23.312;2023-07-20T00:12:58;5.45;;;1.85;;
51224;SDS011;37298;42.688;23.312;2023-07-20T00:15:24;7.25;;;2.33;;
51224;SDS011;37298;42.688;23.312;2023-07-20T00:17:50;5.40;;;2.00;;
51224;SDS011;37298;42.688;23.312;2023-07-20T00:20:17;5.65;;;2.05;;
51224;SDS011;37298;42.688;23.312;2023-07-20T00:22:43;5.50;;;2.13;;
51224;SDS011;37298;42.688;23.312;2023-07-20T00:25:09;6.35;;;2.65;;
51224;SDS011;37298;42.688;23.312;2023-07-20T00:27:36;8.23;;;2.88;;
51224;SDS011;37298;42.688;23.312;2023-07-20T00:30:04;5.75;;;2.38;;
51224;SDS011;37298;42.688;23.312;2023-07-20T00:32:31;6.97;;;1.85;;
51224;SDS011;37298;42.688;23.312;2023-07-20T00:34:57;4.82;;;2.20;;
51224;SDS011;37298;42.688;23.312;2023-07-20T00:37:23;7.15;;;2.17;;
51224;SDS011;37298;42.688;23.312;2023-07-20T00:39:49;6.25;;;2.20;;
51224;SDS011;37298;42.688;23.312;2023-07-20T00:42:15;9.55;;;2.25;;
51224;SDS011;37298;42.688;23.312;2023-07-20T00:44:41;6.05;;;1.90;;
51224;SDS011;37298;42.688;23.312;2023-07-20T00:47:09;7.63;;;1.80;;
51224;SDS011;37298;42.688;23.312;2023-07-20T00:49:35;3.78;;;2.05;;
51224;SDS011;37298;42.688;23.312;2023-07-20T00:52:01;7.47;;;2.00;;
51224;SDS011;37298;42.688;23.312;2023-07-20T00:54:29;5.47;;;1.73;;
51224;SDS011;37298;42.688;23.312;2023-07-20T00:56:55;9.85;;;2.47;;
51224;SDS011;37298;42.688;23.312;2023-07-20T00:59:21;13.15;;;2.83;;
51224;SDS011;37298;42.688;23.312;2023-07-20T01:01:49;6.32;;;1.92;;
51224;SDS011;37298;42.688;23.312;2023-07-20T01:04:16;5.18;;;2.00;;
51224;SDS011;37298;42.688;23.312;2023-07-20T01:06:44;10.02;;;2.40;;
51224;SDS011;37298;42.688;23.312;2023-07-20T01:09:13;6.20;;;2.15;;
51224;SDS011;37298;42.688;23.312;2023-07-20T01:11:43;5.70;;;2.25;;
51224;SDS011;37298;42.688;23.312;2023-07-20T01:14:11;3.55;;;2.15;;
51224;SDS011;37298;42.688;23.312;2023-07-20T01:16:38;8.50;;;2.35;;
51224;SDS011;37298;42.688;23.312;2023-07-20T01:19:05;5.40;;;2.35;;
51224;SDS011;37298;42.688;23.312;2023-07-20T01:21:34;7.30;;;2.13;;
51224;SDS011;37298;42.688;23.312;2023-07-20T01:27:00;4.70;;;1.98;;
51224;SDS011;37298;42.688;23.312;2023-07-20T01:29:37;7.25;;;2.03;;
51224;SDS011;37298;42.688;23.312;2023-07-20T01:32:08;4.35;;;1.85;;
51224;SDS011;37298;42.688;23.312;2023-07-20T01:34:35;8.25;;;2.20;;
51224;SDS011;37298;42.688;23.312;2023-07-20T01:37:02;5.60;;;2.47;;
51224;SDS011;37298;42.688;23.312;2023-07-20T01:39:30;8.57;;;2.85;;
51224;SDS011;37298;42.688;23.312;2023-07-20T01:41:57;5.47;;;2.60;;
51224;SDS011;37298;42.688;23.312;2023-07-20T01:44:23;7.30;;;2.72;;
51224;SDS011;37298;42.688;23.312;2023-07-20T01:46:50;7.35;;;2.58;;
51224;SDS011;37298;42.688;23.312;2023-07-20T01:49:17;8.30;;;3.08;;
51224;SDS011;37298;42.688;23.312;2023-07-20T01:51:43;11.32;;;2.60;;
51224;SDS011;37298;42.688;23.312;2023-07-20T01:54:10;9.52;;;3.80;;
51224;SDS011;37298;42.688;23.312;2023-07-20T01:56:36;7.35;;;3.20;;
51224;SDS011;37298;42.688;23.312;2023-07-20T01:59:03;7.65;;;3.30;;
51224;SDS011;37298;42.688;23.312;2023-07-20T02:01:29;5.43;;;3.30;;
51224;SDS011;37298;42.688;23.312;2023-07-20T02:03:55;5.97;;;2.53;;
51224;SDS011;37298;42.688;23.312;2023-07-20T02:06:22;5.53;;;2.80;;
51224;SDS011;37298;42.688;23.312;2023-07-20T02:08:48;6.53;;;2.60;;
51224;SDS011;37298;42.688;23.312;2023-07-20T02:11:14;7.68;;;2.90;;
51224;SDS011;37298;42.688;23.312;2023-07-20T02:13:40;5.88;;;2.97;;
51224;SDS011;37298;42.688;23.312;2023-07-20T02:16:06;8.32;;;3.10;;
51224;SDS011;37298;42.688;23.312;2023-07-20T02:18:33;14.98;;;3.75;;
51224;SDS011;37298;42.688;23.312;2023-07-20T02:20:59;7.00;;;3.13;;
51224;SDS011;37298;42.688;23.312;2023-07-20T02:23:27;4.70;;;3.00;;
51224;SDS011;37298;42.688;23.312;2023-07-20T02:25:53;7.00;;;3.47;;
51224;SDS011;37298;42.688;23.312;2023-07-20T02:28:19;5.50;;;3.17;;
51224;SDS011;37298;42.688;23.312;2023-07-20T02:30:45;5.28;;;2.42;;
51224;SDS011;37298;42.688;23.312;2023-07-20T02:33:12;6.63;;;2.58;;
51224;SDS011;37298;42.688;23.312;2023-07-20T02:35:39;5.70;;;2.47;;
51224;SDS011;37298;42.688;23.312;2023-07-20T02:38:07;5.75;;;2.83;;
51224;SDS011;37298;42.688;23.312;2023-07-20T02:40:34;6.22;;;3.22;;
51224;SDS011;37298;42.688;23.312;2023-07-20T02:43:00;7.65;;;2.63;;
51224;SDS011;37298;42.688;23.312;2023-07-20T02:45:26;10.65;;;3.30;;
51224;SDS011;37298;42.688;23.312;2023-07-20T02:47:52;8.13;;;2.80;;
51224;SDS011;37298;42.688;23.312;2023-07-20T02:50:18;6.50;;;2.33;;
51224;SDS011;37298;42.688;23.312;2023-07-20T02:52:45;5.70;;;2.25;;
51224;SDS011;37298;42.688;23.312;2023-07-20T02:55:11;5.72;;;2.85;;
51224;SDS011;37298;42.688;23.312;2023-07-20T02:57:38;13.13;;;2.50;;
51224;SDS011;37298;42.688;23.312;2023-07-20T03:00:05;8.23;;;2.45;;
51224;SDS011;37298;42.688;23.312;2023-07-20T03:02:32;12.90;;;2.80;;
51224;SDS011;37298;42.688;23.312;2023-07-20T03:04:58;6.55;;;2.72;;
51224;SDS011;37298;42.688;23.312;2023-07-20T03:07:26;8.20;;;2.83;;
51224;SDS011;37298;42.688;23.312;2023-07-20T03:09:53;7.43;;;2.58;;
51224;SDS011;37298;42.688;23.312;2023-07-20T03:12:20;7.43;;;3.65;;
51224;SDS011;37298;42.688;23.312;2023-07-20T03:14:48;7.07;;;2.83;;
51224;SDS011;37298;42.688;23.312;2023-07-20T03:17:14;5.15;;;2.63;;
51224;SDS011;37298;42.688;23.312;2023-07-20T03:19:40;6.03;;;2.83;;
51224;SDS011;37298;42.688;23.312;2023-07-20T03:22:07;9.00;;;2.83;;
51224;SDS011;37298;42.688;23.312;2023-07-20T03:24:34;9.45;;;2.75;;
51224;SDS011;37298;42.688;23.312;2023-07-20T03:27:00;5.80;;;2.58;;
51224;SDS011;37298;42.688;23.312;2023-07-20T03:29:26;4.65;;;2.50;;
51224;SDS011;37298;42.688;23.312;2023-07-20T03:31:53;9.43;;;2.65;;
51224;SDS011;37298;42.688;23.312;2023-07-20T03:34:20;5.22;;;2.25;;
51224;SDS011;37298;42.688;23.312;2023-07-20T03:36:46;6.97;;;2.95;;
51224;SDS011;37298;42.688;23.312;2023-07-20T03:39:13;7.57;;;3.15;;
51224;SDS011;37298;42.688;23.312;2023-07-20T03:41:39;6.50;;;2.85;;
51224;SDS011;37298;42.688;23.312;2023-07-20T03:44:05;4.97;;;2.60;;
51224;SDS011;37298;42.688;23.312;2023-07-20T03:46:31;8.07;;;2.92;;
51224;SDS011;37298;42.688;23.312;2023-07-20T03:49:00;13.32;;;4.32;;
51224;SDS011;37298;42.688;23.312;2023-07-20T03:51:26;13.05;;;2.92;;
51224;SDS011;37298;42.688;23.312;2023-07-20T03:53:52;8.70;;;2.67;;
51224;SDS011;37298;42.688;23.312;2023-07-20T03:56:19;7.45;;;2.80;;
51224;SDS011;37298;42.688;23.312;2023-07-20T03:58:45;7.65;;;3.30;;
51224;SDS011;37298;42.688;23.312;2023-07-20T04:01:11;8.73;;;3.15;;
51224;SDS011;37298;42.688;23.312;2023-07-20T04:03:38;4.97;;;2.15;;
51224;SDS011;37298;42.688;23.312;2023-07-20T04:06:05;8.80;;;2.67;;
51224;SDS011;37298;42.688;23.312;2023-07-20T04:08:32;9.82;;;2.70;;
51224;SDS011;37298;42.688;23.312;2023-07-20T04:11:00;5.65;;;2.67;;
51224;SDS011;37298;42.688;23.312;2023-07-20T04:13:26;9.35;;;3.47;;
51224;SDS011;37298;42.688;23.312;2023-07-20T04:15:53;7.65;;;2.63;;
51224;SDS011;37298;42.688;23.312;2023-07-20T04:18:19;8.05;;;3.45;;
51224;SDS011;37298;42.688;23.312;2023-07-20T04:20:45;5.30;;;2.70;;
51224;SDS011;37298;42.688;23.312;2023-07-20T04:23:12;16.23;;;2.92;;
51224;SDS011;37298;42.688;23.312;2023-07-20T04:25:39;7.57;;;2.80;;
51224;SDS011;37298;42.688;23.312;2023-07-20T04:28:06;12.77;;;3.20;;
51224;SDS011;37298;42.688;23.312;2023-07-20T04:30:36;5.25;;;3.42;;
51224;SDS011;37298;42.688;23.312;2023-07-20T04:33:02;5.60;;;2.83;;
51224;SDS011;37298;42.688;23.312;2023-07-20T04:35:45;7.10;;;3.40;;
51224;SDS011;37298;42.688;23.312;2023-07-20T04:38:13;7.10;;;3.20;;
51224;SDS011;37298;42.688;23.312;2023-07-20T04:40:41;7.15;;;2.63;;
51224;SDS011;37298;42.688;23.312;2023-07-20T04:43:07;9.05;;;2.95;;
51224;SDS011;37298;42.688;23.312;2023-07-20T04:45:33;12.60;;;3.08;;
51224;SDS011;37298;42.688;23.312;2023-07-20T04:47:59;7.50;;;2.80;;
51224;SDS011;37298;42.688;23.312;2023-07-20T04:50:26;11.38;;;3.00;;
51224;SDS011;37298;42.688;23.312;2023-07-20T04:52:52;11.52;;;3.83;;
51224;SDS011;37298;42.688;23.312;2023-07-20T04:55:21;5.63;;;3.10;;
51224;SDS011;37298;42.688;23.312;2023-07-20T04:57:47;8.95;;;2.88;;
51224;SDS011;37298;42.688;23.312;2023-07-20T05:00:15;5.70;;;2.83;;
51224;SDS011;37298;42.688;23.312;2023-07-20T05:02:42;7.10;;;3.33;;
51224;SDS011;37298;42.688;23.312;2023-07-20T05:05:08;6.78;;;3.08;;
51224;SDS011;37298;42.688;23.312;2023-07-20T05:07:35;8.90;;;3.35;;
51224;SDS011;37298;42.688;23.312;2023-07-20T05:10:01;5.30;;;2.60;;
51224;SDS011;37298;42.688;23.312;2023-07-20T05:12:29;7.43;;;2.83;;
51224;SDS011;37298;42.688;23.312;2023-07-20T05:14:55;7.07;;;2.55;;
51224;SDS011;37298;42.688;23.312;2023-07-20T05:17:21;8.02;;;2.72;;
51224;SDS011;37298;42.688;23.312;2023-07-20T05:19:48;7.00;;;2.83;;
51224;SDS011;37298;42.688;23.312;2023-07-20T05:22:14;8.18;;;2.90;;
51224;SDS011;37298;42.688;23.312;2023-07-20T05:24:40;4.75;;;2.53;;
51224;SDS011;37298;42.688;23.312;2023-07-20T05:27:06;6.30;;;2.50;;
51224;SDS011;37298;42.688;23.312;2023-07-20T05:29:33;11.02;;;2.75;;
51224;SDS011;37298;42.688;23.312;2023-07-20T05:31:59;11.38;;;2.55;;
51224;SDS011;37298;42.688;23.312;2023-07-20T05:34:25;6.95;;;2.55;;
51224;SDS011;37298;42.688;23.312;2023-07-20T05:37:10;6.38;;;3.03;;
51224;SDS011;37298;42.688;23.312;2023-07-20T05:39:36;11.68;;;3.22;;
51224;SDS011;37298;42.688;23.312;2023-07-20T05:42:02;14.68;;;2.80;;
51224;SDS011;37298;42.688;23.312;2023-07-20T05:44:29;10.13;;;3.17;;
51224;SDS011;37298;42.688;23.312;2023-07-20T05:46:56;8.25;;;2.58;;
51224;SDS011;37298;42.688;23.312;2023-07-20T05:49:22;8.63;;;2.50;;
51224;SDS011;37298;42.688;23.312;2023-07-20T05:51:48;5.82;;;2.33;;
51224;SDS011;37298;42.688;23.312;2023-07-20T05:54:14;12.82;;;3.53;;
51224;SDS011;37298;42.688;23.312;2023-07-20T05:56:40;7.65;;;2.65;;
51224;SDS011;37298;42.688;23.312;2023-07-20T05:59:07;6.90;;;3.72;;
51224;SDS011;37298;42.688;23.312;2023-07-20T06:01:33;10.05;;;3.80;;
51224;SDS011;37298;42.688;23.312;2023-07-20T06:04:00;12.43;;;3.42;;
51224;SDS011;37298;42.688;23.312;2023-07-20T06:06:26;11.07;;;3.60;;
51224;SDS011;37298;42.688;23.312;2023-07-20T06:08:52;8.48;;;3.40;;
51224;SDS011;37298;42.688;23.312;2023-07-20T06:11:18;16.08;;;4.05;;
51224;SDS011;37298;42.688;23.312;2023-07-20T06:13:44;9.70;;;3.40;;
51224;SDS011;37298;42.688;23.312;2023-07-20T06:16:10;7.15;;;3.58;;
51224;SDS011;37298;42.688;23.312;2023-07-20T06:18:36;10.55;;;3.80;;
51224;SDS011;37298;42.688;23.312;2023-07-20T06:21:04;8.07;;;3.47;;
51224;SDS011;37298;42.688;23.312;2023-07-20T06:23:30;11.65;;;3.65;;
51224;SDS011;37298;42.688;23.312;2023-07-20T06:25:56;11.82;;;4.00;;
51224;SDS011;37298;42.688;23.312;2023-07-20T06:28:22;11.32;;;4.55;;
51224;SDS011;37298;42.688;23.312;2023-07-20T06:30:48;8.30;;;3.83;;
51224;SDS011;37298;42.688;23.312;2023-07-20T06:33:16;12.43;;;3.78;;
51224;SDS011;37298;42.688;23.312;2023-07-20T06:35:42;9.85;;;3.38;;
51224;SDS011;37298;42.688;23.312;2023-07-20T06:38:09;12.57;;;3.80;;
51224;SDS011;37298;42.688;23.312;2023-07-20T06:40:35;9.30;;;3.78;;
51224;SDS011;37298;42.688;23.312;2023-07-20T06:43:01;7.45;;;2.90;;
51224;SDS011;37298;42.688;23.312;2023-07-20T06:45:27;9.57;;;3.60;;
51224;SDS011;37298;42.688;23.312;2023-07-20T06:47:53;13.70;;;3.67;;
51224;SDS011;37298;42.688;23.312;2023-07-20T06:50:19;12.20;;;3.60;;
51224;SDS011;37298;42.688;23.312;2023-07-20T06:52:46;8.52;;;3.20;;
51224;SDS011;37298;42.688;23.312;2023-07-20T06:55:14;10.65;;;3.58;;
51224;SDS011;37298;42.688;23.312;2023-07-20T06:57:40;9.30;;;3.65;;
51224;SDS011;37298;42.688;23.312;2023-07-20T07:00:07;9.52;;;5.57;;
51224;SDS011;37298;42.688;23.312;2023-07-20T07:02:34;10.93;;;4.28;;
51224;SDS011;37298;42.688;23.312;2023-07-20T07:05:00;11.60;;;5.25;;
51224;SDS011;37298;42.688;23.312;2023-07-20T07:07:26;14.77;;;4.60;;
51224;SDS011;37298;42.688;23.312;2023-07-20T07:09:52;7.85;;;4.20;;
51224;SDS011;37298;42.688;23.312;2023-07-20T07:12:19;8.30;;;3.83;;
51224;SDS011;37298;42.688;23.312;2023-07-20T07:14:45;8.45;;;3.45;;
51224;SDS011;37298;42.688;23.312;2023-07-20T07:17:11;6.43;;;3.30;;
51224;SDS011;37298;42.688;23.312;2023-07-20T07:19:37;9.55;;;3.25;;
51224;SDS011;37298;42.688;23.312;2023-07-20T07:22:04;13.57;;;3.90;;
51224;SDS011;37298;42.688;23.312;2023-07-20T07:24:30;8.32;;;3.38;;
51224;SDS011;37298;42.688;23.312;2023-07-20T07:26:59;9.25;;;3.72;;
51224;SDS011;37298;42.688;23.312;2023-07-20T07:29:25;13.90;;;5.18;;
51224;SDS011;37298;42.688;23.312;2023-07-20T07:31:52;10.63;;;4.07;;
51224;SDS011;37298;42.688;23.312;2023-07-20T07:34:19;6.10;;;3.67;;
51224;SDS011;37298;42.688;23.312;2023-07-20T07:36:45;10.43;;;3.50;;
51224;SDS011;37298;42.688;23.312;2023-07-20T07:39:12;9.88;;;3.97;;
51224;SDS011;37298;42.688;23.312;2023-07-20T07:41:38;9.38;;;3.83;;
51224;SDS011;37298;42.688;23.312;2023-07-20T07:44:04;7.07;;;3.10;;
51224;SDS011;37298;42.688;23.312;2023-07-20T07:46:31;11.20;;;3.17;;
51224;SDS011;37298;42.688;23.312;2023-07-20T07:48:58;10.40;;;3.22;;
51224;SDS011;37298;42.688;23.312;2023-07-20T07:51:24;15.95;;;3.17;;
51224;SDS011;37298;42.688;23.312;2023-07-20T07:53:50;10.02;;;3.40;;
51224;SDS011;37298;42.688;23.312;2023-07-20T07:56:16;9.63;;;3.38;;
51224;SDS011;37298;42.688;23.312;2023-07-20T07:58:42;6.65;;;3.67;;
51224;SDS011;37298;42.688;23.312;2023-07-20T08:01:08;11.65;;;3.72;;
51224;SDS011;37298;42.688;23.312;2023-07-20T08:03:35;9.75;;;3.45;;
51224;SDS011;37298;42.688;23.312;2023-07-20T08:06:02;7.43;;;3.38;;
51224;SDS011;37298;42.688;23.312;2023-07-20T08:08:30;7.03;;;2.97;;
51224;SDS011;37298;42.688;23.312;2023-07-20T08:10:56;8.77;;;3.08;;
51224;SDS011;37298;42.688;23.312;2023-07-20T08:13:22;7.90;;;3.00;;
51224;SDS011;37298;42.688;23.312;2023-07-20T08:15:49;10.15;;;3.42;;
51224;SDS011;37298;42.688;23.312;2023-07-20T08:18:15;6.88;;;2.78;;
51224;SDS011;37298;42.688;23.312;2023-07-20T08:20:43;6.43;;;3.30;;
51224;SDS011;37298;42.688;23.312;2023-07-20T08:23:09;10.20;;;3.42;;
51224;SDS011;37298;42.688;23.312;2023-07-20T08:25:36;9.77;;;2.75;;
51224;SDS011;37298;42.688;23.312;2023-07-20T08:28:03;8.30;;;2.55;;
51224;SDS011;37298;42.688;23.312;2023-07-20T08:30:38;6.63;;;2.92;;
51224;SDS011;37298;42.688;23.312;2023-07-20T08:33:05;9.32;;;2.30;;
51224;SDS011;37298;42.688;23.312;2023-07-20T08:35:31;12.60;;;2.45;;
51224;SDS011;37298;42.688;23.312;2023-07-20T08:37:58;7.07;;;2.58;;
51224;SDS011;37298;42.688;23.312;2023-07-20T08:40:24;7.40;;;2.38;;
51224;SDS011;37298;42.688;23.312;2023-07-20T08:42:50;10.80;;;2.38;;
51224;SDS011;37298;42.688;23.312;2023-07-20T08:45:16;5.03;;;2.20;;
51224;SDS011;37298;42.688;23.312;2023-07-20T08:47:42;9.10;;;3.22;;
51224;SDS011;37298;42.688;23.312;2023-07-20T08:50:09;8.18;;;2.70;;
51224;SDS011;37298;42.688;23.312;2023-07-20T08:52:37;8.67;;;2.80;;
51224;SDS011;37298;42.688;23.312;2023-07-20T08:55:04;7.55;;;2.45;;
51224;SDS011;37298;42.688;23.312;2023-07-20T08:57:30;6.00;;;2.20;;
51224;SDS011;37298;42.688;23.312;2023-07-20T08:59:58;6.68;;;2.22;;
51224;SDS011;37298;42.688;23.312;2023-07-20T09:02:24;8.63;;;2.13;;
51224;SDS011;37298;42.688;23.312;2023-07-20T09:04:52;6.47;;;2.60;;
51224;SDS011;37298;42.688;23.312;2023-07-20T09:07:18;4.50;;;1.35;;
51224;SDS011;37298;42.688;23.312;2023-07-20T09:09:45;4.30;;;1.90;;
51224;SDS011;37298;42.688;23.312;2023-07-20T09:12:15;3.90;;;1.60;;
51224;SDS011;37298;42.688;23.312;2023-07-20T09:14:42;9.80;;;2.50;;
51224;SDS011;37298;42.688;23.312;2023-07-20T09:17:12;5.30;;;1.92;;
51224;SDS011;37298;42.688;23.312;2023-07-20T09:19:38;7.07;;;2.35;;
51224;SDS011;37298;42.688;23.312;2023-07-20T09:22:05;5.95;;;1.98;;
51224;SDS011;37298;42.688;23.312;2023-07-20T09:24:31;8.05;;;2.28;;
51224;SDS011;37298;42.688;23.312;2023-07-20T09:26:57;6.60;;;2.88;;
51224;SDS011;37298;42.688;23.312;2023-07-20T09:29:27;6.97;;;2.45;;
51224;SDS011;37298;42.688;23.312;2023-07-20T09:32:00;4.30;;;1.90;;
51224;SDS011;37298;42.688;23.312;2023-07-20T09:34:28;5.35;;;2.38;;
51224;SDS011;37298;42.688;23.312;2023-07-20T09:36:54;6.28;;;1.98;;
51224;SDS011;37298;42.688;23.312;2023-07-20T09:39:21;11.02;;;3.00;;
51224;SDS011;37298;42.688;23.312;2023-07-20T09:41:47;9.75;;;2.03;;
51224;SDS011;37298;42.688;23.312;2023-07-20T09:44:14;9.25;;;1.95;;
51224;SDS011;37298;42.688;23.312;2023-07-20T09:46:44;6.07;;;1.77;;
51224;SDS011;37298;42.688;23.312;2023-07-20T09:49:11;5.53;;;2.13;;
51224;SDS011;37298;42.688;23.312;2023-07-20T09:51:37;4.70;;;2.33;;
51224;SDS011;37298;42.688;23.312;2023-07-20T09:54:03;6.72;;;2.25;;
51224;SDS011;37298;42.688;23.312;2023-07-20T09:56:30;5.65;;;2.45;;
51224;SDS011;37298;42.688;23.312;2023-07-20T09:58:56;6.25;;;2.13;;
51224;SDS011;37298;42.688;23.312;2023-07-20T10:01:22;7.85;;;2.58;;
51224;SDS011;37298;42.688;23.312;2023-07-20T10:03:49;5.38;;;1.90;;
51224;SDS011;37298;42.688;23.312;2023-07-20T10:06:19;14.23;;;2.90;;
51224;SDS011;37298;42.688;23.312;2023-07-20T10:08:46;11.30;;;2.05;;
51224;SDS011;37298;42.688;23.312;2023-07-20T10:11:13;7.72;;;2.25;;
51224;SDS011;37298;42.688;23.312;2023-07-20T10:13:41;5.78;;;2.05;;
51224;SDS011;37298;42.688;23.312;2023-07-20T10:16:10;8.98;;;2.88;;
51224;SDS011;37298;42.688;23.312;2023-07-20T10:18:38;9.07;;;2.60;;
51224;SDS011;37298;42.688;23.312;2023-07-20T10:21:07;5.38;;;1.90;;
51224;SDS011;37298;42.688;23.312;2023-07-20T10:23:35;6.93;;;2.45;;
51224;SDS011;37298;42.688;23.312;2023-07-20T10:26:01;9.48;;;3.70;;
51224;SDS011;37298;42.688;23.312;2023-07-20T10:28:28;8.38;;;1.92;;
51224;SDS011;37298;42.688;23.312;2023-07-20T10:30:54;9.25;;;2.80;;
51224;SDS011;37298;42.688;23.312;2023-07-20T10:33:20;6.68;;;2.17;;
51224;SDS011;37298;42.688;23.312;2023-07-20T10:35:50;14.05;;;2.35;;
51224;SDS011;37298;42.688;23.312;2023-07-20T10:38:17;5.90;;;2.05;;
51224;SDS011;37298;42.688;23.312;2023-07-20T10:40:43;5.88;;;1.73;;
51224;SDS011;37298;42.688;23.312;2023-07-20T10:43:19;6.20;;;1.73;;
51224;SDS011;37298;42.688;23.312;2023-07-20T10:45:48;8.00;;;2.15;;
51224;SDS011;37298;42.688;23.312;2023-07-20T10:48:15;4.63;;;1.77;;
51224;SDS011;37298;42.688;23.312;2023-07-20T10:50:42;11.75;;;2.83;;
51224;SDS011;37298;42.688;23.312;2023-07-20T10:53:12;6.90;;;2.47;;
51224;SDS011;37298;42.688;23.312;2023-07-20T10:55:39;7.10;;;2.00;;
51224;SDS011;37298;42.688;23.312;2023-07-20T10:58:08;10.82;;;2.33;;
51224;SDS011;37298;42.688;23.312;2023-07-20T11:00:35;4.82;;;2.42;;
51224;SDS011;37298;42.688;23.312;2023-07-20T11:03:01;8.27;;;2.03;;
51224;SDS011;37298;42.688;23.312;2023-07-20T11:05:37;12.05;;;2.40;;
51224;SDS011;37298;42.688;23.312;2023-07-20T11:08:04;9.15;;;2.35;;
51224;SDS011;37298;42.688;23.312;2023-07-20T11:10:31;6.22;;;2.17;;
51224;SDS011;37298;42.688;23.312;2023-07-20T11:13:17;7.95;;;2.53;;
51224;SDS011;37298;42.688;23.312;2023-07-20T11:15:46;11.32;;;2.10;;
51224;SDS011;37298;42.688;23.312;2023-07-20T11:18:13;3.75;;;1.85;;
51224;SDS011;37298;42.688;23.312;2023-07-20T11:20:39;7.95;;;2.47;;
51224;SDS011;37298;42.688;23.312;2023-07-20T11:23:05;10.93;;;2.22;;
51224;SDS011;37298;42.688;23.312;2023-07-20T11:25:36;5.18;;;2.20;;
51224;SDS011;37298;42.688;23.312;2023-07-20T11:28:02;6.63;;;2.00;;
51224;SDS011;37298;42.688;23.312;2023-07-20T11:30:33;4.78;;;2.15;;
51224;SDS011;37298;42.688;23.312;2023-07-20T11:32:59;8.13;;;2.05;;
51224;SDS011;37298;42.688;23.312;2023-07-20T11:35:25;7.97;;;2.47;;
51224;SDS011;37298;42.688;23.312;2023-07-20T11:37:51;5.07;;;2.53;;
51224;SDS011;37298;42.688;23.312;2023-07-20T11:40:17;5.22;;;2.20;;
51224;SDS011;37298;42.688;23.312;2023-07-20T11:42:44;7.38;;;2.75;;
51224;SDS011;37298;42.688;23.312;2023-07-20T11:45:11;7.20;;;3.10;;
51224;SDS011;37298;42.688;23.312;2023-07-20T11:47:40;8.50;;;2.45;;
51224;SDS011;37298;42.688;23.312;2023-07-20T11:50:07;6.30;;;2.95;;
51224;SDS011;37298;42.688;23.312;2023-07-20T11:52:34;4.88;;;2.67;;
51224;SDS011;37298;42.688;23.312;2023-07-20T11:55:01;4.25;;;2.28;;
51224;SDS011;37298;42.688;23.312;2023-07-20T11:57:27;8.57;;;2.75;;
51224;SDS011;37298;42.688;23.312;2023-07-20T11:59:53;8.52;;;2.63;;
51224;SDS011;37298;42.688;23.312;2023-07-20T12:02:22;7.50;;;2.55;;
51224;SDS011;37298;42.688;23.312;2023-07-20T12:04:51;5.60;;;2.92;;
51224;SDS011;37298;42.688;23.312;2023-07-20T12:07:18;4.05;;;2.03;;
51224;SDS011;37298;42.688;23.312;2023-07-20T12:09:44;5.68;;;2.40;;
51224;SDS011;37298;42.688;23.312;2023-07-20T12:12:11;5.57;;;2.67;;
51224;SDS011;37298;42.688;23.312;2023-07-20T12:14:37;6.10;;;2.83;;
51224;SDS011;37298;42.688;23.312;2023-07-20T12:17:03;5.97;;;2.40;;
51224;SDS011;37298;42.688;23.312;2023-07-20T12:19:29;5.20;;;2.65;;
51224;SDS011;37298;42.688;23.312;2023-07-20T12:21:58;5.93;;;2.33;;
51224;SDS011;37298;42.688;23.312;2023-07-20T12:24:24;5.88;;;2.28;;
51224;SDS011;37298;42.688;23.312;2023-07-20T12:26:55;5.55;;;2.30;;
51224;SDS011;37298;42.688;23.312;2023-07-20T12:29:21;3.67;;;1.90;;
51224;SDS011;37298;42.688;23.312;2023-07-20T12:31:48;4.90;;;2.45;;
51224;SDS011;37298;42.688;23.312;2023-07-20T12:34:14;7.28;;;2.15;;
51224;SDS011;37298;42.688;23.312;2023-07-20T12:36:40;5.40;;;2.55;;
51224;SDS011;37298;42.688;23.312;2023-07-20T12:39:07;5.47;;;1.98;;
51224;SDS011;37298;42.688;23.312;2023-07-20T12:41:33;6.55;;;1.90;;
51224;SDS011;37298;42.688;23.312;2023-07-20T12:43:59;9.75;;;2.65;;
51224;SDS011;37298;42.688;23.312;2023-07-20T12:46:25;5.10;;;2.22;;
51224;SDS011;37298;42.688;23.312;2023-07-20T12:48:53;7.35;;;2.42;;
51224;SDS011;37298;42.688;23.312;2023-07-20T12:51:19;6.60;;;2.67;;
51224;SDS011;37298;42.688;23.312;2023-07-20T12:53:45;7.20;;;2.08;;
51224;SDS011;37298;42.688;23.312;2023-07-20T12:56:12;4.35;;;1.95;;
51224;SDS011;37298;42.688;23.312;2023-07-20T12:58:39;6.82;;;2.15;;
51224;SDS011;37298;42.688;23.312;2023-07-20T13:01:05;8.23;;;2.03;;
51224;SDS011;37298;42.688;23.312;2023-07-20T13:03:31;6.13;;;2.00;;
51224;SDS011;37298;42.688;23.312;2023-07-20T13:05:57;4.25;;;1.98;;
51224;SDS011;37298;42.688;23.312;2023-07-20T13:08:24;7.05;;;2.25;;
51224;SDS011;37298;42.688;23.312;2023-07-20T13:10:51;4.47;;;2.07;;
51224;SDS011;37298;42.688;23.312;2023-07-20T13:13:18;4.03;;;2.08;;
51224;SDS011;37298;42.688;23.312;2023-07-20T13:15:45;8.63;;;2.42;;
51224;SDS011;37298;42.688;23.312;2023-07-20T13:18:12;6.33;;;1.70;;
51224;SDS011;37298;42.688;23.312;2023-07-20T13:20:38;4.65;;;2.03;;
51224;SDS011;37298;42.688;23.312;2023-07-20T13:23:04;4.15;;;1.90;;
51224;SDS011;37298;42.688;23.312;2023-07-20T13:25:30;6.93;;;2.00;;
51224;SDS011;37298;42.688;23.312;2023-07-20T13:27:56;5.55;;;2.30;;
51224;SDS011;37298;42.688;23.312;2023-07-20T13:30:23;7.30;;;2.28;;
51224;SDS011;37298;42.688;23.312;2023-07-20T13:32:49;12.85;;;2.17;;
51224;SDS011;37298;42.688;23.312;2023-07-20T13:35:15;8.00;;;2.00;;
51224;SDS011;37298;42.688;23.312;2023-07-20T13:37:42;5.03;;;2.03;;
51224;SDS011;37298;42.688;23.312;2023-07-20T13:40:08;5.13;;;1.95;;
51224;SDS011;37298;42.688;23.312;2023-07-20T13:42:38;5.00;;;1.77;;
51224;SDS011;37298;42.688;23.312;2023-07-20T13:45:04;4.90;;;1.80;;
51224;SDS011;37298;42.688;23.312;2023-07-20T13:47:31;5.60;;;2.38;;
51224;SDS011;37298;42.688;23.312;2023-07-20T13:49:57;8.85;;;2.13;;
51224;SDS011;37298;42.688;23.312;2023-07-20T13:52:23;7.65;;;1.77;;
51224;SDS011;37298;42.688;23.312;2023-07-20T13:54:49;4.95;;;1.83;;
51224;SDS011;37298;42.688;23.312;2023-07-20T13:57:15;3.70;;;1.77;;
51224;SDS011;37298;42.688;23.312;2023-07-20T13:59:42;13.85;;;2.50;;
51224;SDS011;37298;42.688;23.312;2023-07-20T14:02:08;7.28;;;2.25;;
51224;SDS011;37298;42.688;23.312;2023-07-20T14:04:35;6.07;;;2.60;;
51224;SDS011;37298;42.688;23.312;2023-07-20T14:07:01;4.40;;;1.80;;
51224;SDS011;37298;42.688;23.312;2023-07-20T14:09:28;6.35;;;1.77;;
51224;SDS011;37298;42.688;23.312;2023-07-20T14:11:54;6.63;;;2.20;;
51224;SDS011;37298;42.688;23.312;2023-07-20T14:14:20;6.13;;;1.73;;
51224;SDS011;37298;42.688;23.312;2023-07-20T14:16:46;5.32;;;2.05;;
51224;SDS011;37298;42.688;23.312;2023-07-20T14:19:12;5.47;;;2.03;;
51224;SDS011;37298;42.688;23.312;2023-07-20T14:21:39;9.73;;;2.20;;
51224;SDS011;37298;42.688;23.312;2023-07-20T14:24:05;7.72;;;2.38;;
51224;SDS011;37298;42.688;23.312;2023-07-20T14:26:31;4.63;;;1.75;;
51224;SDS011;37298;42.688;23.312;2023-07-20T14:28:57;5.63;;;1.65;;
51224;SDS011;37298;42.688;23.312;2023-07-20T14:31:23;7.60;;;2.03;;
51224;SDS011;37298;42.688;23.312;2023-07-20T14:33:50;6.80;;;1.90;;
51224;SDS011;37298;42.688;23.312;2023-07-20T14:36:16;5.75;;;2.00;;